createdAt,value
2019-06-26T00:00:40.801Z,13.83
2019-06-26T00:03:10.559Z,13.22
2019-06-26T00:05:40.207Z,14.00
2019-06-26T00:08:09.877Z,14.80
2019-06-26T00:10:39.532Z,14.47
2019-06-26T00:13:24.844Z,14.25
2019-06-26T00:15:40.552Z,13.40
2019-06-26T00:18:10.303Z,15.53
2019-06-26T00:20:39.944Z,14.90
2019-06-26T00:23:09.614Z,14.58
2019-06-26T00:25:39.277Z,15.10
2019-06-26T00:28:08.927Z,14.80
2019-06-26T00:30:38.633Z,14.58
2019-06-26T00:33:08.273Z,15.40
2019-06-26T00:35:37.961Z,15.03
2019-06-26T00:38:07.646Z,15.90
2019-06-26T00:40:37.304Z,16.20
2019-06-26T00:43:06.953Z,17.23
2019-06-26T00:45:36.633Z,16.48
2019-06-26T00:48:06.293Z,18.05
2019-06-26T00:50:36.198Z,19.57
2019-06-26T00:53:05.876Z,20.32
2019-06-26T00:55:35.510Z,21.55
2019-06-26T00:58:05.260Z,21.37
2019-06-26T01:00:40.760Z,21.97
2019-06-26T01:03:10.393Z,20.60
2019-06-26T01:05:40.111Z,19.42
2019-06-26T01:08:09.781Z,19.02
2019-06-26T01:10:39.424Z,18.77
2019-06-26T01:13:09.173Z,18.95
2019-06-26T01:15:38.841Z,18.85
2019-06-26T01:18:08.527Z,18.35
2019-06-26T01:20:38.137Z,17.95
2019-06-26T01:23:07.798Z,19.23
2019-06-26T01:25:37.446Z,18.27
2019-06-26T01:28:07.107Z,18.20
2019-06-26T01:30:36.798Z,15.40
2019-06-26T01:33:06.435Z,14.78
2019-06-26T01:35:36.087Z,15.00
2019-06-26T01:38:05.764Z,17.32
2019-06-26T01:40:35.441Z,16.05
2019-06-26T01:43:05.198Z,18.42
2019-06-26T01:45:34.873Z,20.25
2019-06-26T01:48:04.519Z,20.97
2019-06-26T01:50:34.165Z,19.07
2019-06-26T01:53:03.908Z,17.90
2019-06-26T01:55:33.537Z,18.37
2019-06-26T01:58:03.190Z,17.30
2019-06-26T02:00:32.880Z,17.25
2019-06-26T02:03:02.664Z,16.85
2019-06-26T02:05:32.312Z,16.30
2019-06-26T02:08:02.006Z,17.87
2019-06-26T02:10:31.633Z,17.75
2019-06-26T02:13:01.301Z,19.12
2019-06-26T02:15:30.976Z,19.12
2019-06-26T02:18:00.619Z,17.77
2019-06-26T02:20:30.325Z,17.98
2019-06-26T02:23:00.013Z,18.35
2019-06-26T02:25:29.657Z,17.15
2019-06-26T02:27:59.311Z,18.07
2019-06-26T02:30:29.097Z,17.12
2019-06-26T02:32:58.746Z,17.07
2019-06-26T02:35:28.398Z,15.32
2019-06-26T02:37:58.223Z,14.55
2019-06-26T02:40:27.906Z,13.70
2019-06-26T02:42:57.555Z,14.70
2019-06-26T02:45:27.228Z,13.98
2019-06-26T02:47:56.866Z,13.18
2019-06-26T02:50:26.528Z,14.07
2019-06-26T02:52:56.217Z,13.78
2019-06-26T02:55:25.795Z,13.30
2019-06-26T02:57:55.399Z,14.07
2019-06-26T03:00:25.114Z,15.43
2019-06-26T03:02:54.757Z,16.87
2019-06-26T03:05:24.427Z,16.40
2019-06-26T03:07:54.006Z,15.45
2019-06-26T03:10:23.662Z,15.03
2019-06-26T03:12:53.353Z,12.13
2019-06-26T03:15:22.996Z,11.70
2019-06-26T03:17:55.782Z,12.28
2019-06-26T03:20:26.982Z,11.93
2019-06-26T03:22:56.651Z,12.43
2019-06-26T03:25:26.230Z,12.70
2019-06-26T03:27:55.881Z,11.60
2019-06-26T03:30:25.772Z,10.65
2019-06-26T03:32:55.438Z,11.00
2019-06-26T03:35:25.081Z,10.85
2019-06-26T03:37:54.750Z,10.55
2019-06-26T03:40:24.400Z,10.13
2019-06-26T03:42:54.046Z,9.30
2019-06-26T03:45:26.219Z,9.60
2019-06-26T03:47:55.072Z,9.93
2019-06-26T03:50:24.745Z,8.70
2019-06-26T03:52:54.394Z,8.68
2019-06-26T03:55:24.234Z,8.25
2019-06-26T03:57:53.905Z,8.98
2019-06-26T04:00:34.965Z,9.40
2019-06-26T04:03:04.734Z,9.45
2019-06-26T04:05:35.068Z,10.55
2019-06-26T04:08:05.040Z,9.88
2019-06-26T04:10:35.964Z,9.33
2019-06-26T04:13:05.727Z,9.60
2019-06-26T04:15:41.992Z,9.78
2019-06-26T04:18:06.728Z,9.80
2019-06-26T04:20:36.368Z,9.53
2019-06-26T04:23:05.949Z,10.15
2019-06-26T04:25:38.157Z,9.55
2019-06-26T04:28:06.960Z,10.32
2019-06-26T04:30:36.650Z,10.98
2019-06-26T04:33:06.298Z,12.00
2019-06-26T04:35:35.941Z,11.90
2019-06-26T04:38:05.545Z,11.15
2019-06-26T04:40:36.189Z,10.95
2019-06-26T04:43:07.028Z,11.00
2019-06-26T04:45:36.674Z,12.13
2019-06-26T04:48:07.367Z,11.50
2019-06-26T04:50:37.343Z,11.78
2019-06-26T04:53:06.914Z,12.33
2019-06-26T04:55:36.556Z,12.15
2019-06-26T04:58:06.227Z,12.20
2019-06-26T05:00:35.868Z,12.60
2019-06-26T05:03:05.834Z,12.95
2019-06-26T05:05:39.981Z,11.95
2019-06-26T05:08:06.845Z,12.13
2019-06-26T05:10:36.506Z,13.62
2019-06-26T05:13:06.157Z,15.48
2019-06-26T05:15:35.773Z,15.98
2019-06-26T05:18:05.424Z,16.27
2019-06-26T05:20:35.138Z,16.00
2019-06-26T05:23:04.905Z,17.67
2019-06-26T05:25:34.481Z,17.17
2019-06-26T05:28:04.086Z,16.97
2019-06-26T05:30:33.730Z,16.12
2019-06-26T05:33:03.405Z,17.48
2019-06-26T05:35:35.135Z,16.87
2019-06-26T05:38:04.597Z,17.20
2019-06-26T05:40:34.337Z,16.07
2019-06-26T05:43:03.993Z,16.17
2019-06-26T05:45:33.767Z,18.17
2019-06-26T05:48:03.442Z,17.40
2019-06-26T05:50:33.102Z,15.65
2019-06-26T05:53:02.766Z,16.17
2019-06-26T05:55:32.414Z,15.72
2019-06-26T05:58:02.123Z,14.78
2019-06-26T06:00:32.843Z,13.35
2019-06-26T06:03:02.479Z,14.25
2019-06-26T06:05:32.147Z,12.78
2019-06-26T06:08:01.919Z,12.53
2019-06-26T06:10:31.606Z,11.15
2019-06-26T06:13:01.300Z,12.10
2019-06-26T06:15:30.951Z,12.37
2019-06-26T06:18:00.531Z,12.78
2019-06-26T06:20:39.081Z,11.70
2019-06-26T06:23:08.726Z,11.43
2019-06-26T06:25:38.312Z,10.98
2019-06-26T06:28:07.975Z,11.20
2019-06-26T06:30:37.619Z,11.28
2019-06-26T06:33:07.191Z,11.00
2019-06-26T06:35:36.865Z,10.68
2019-06-26T06:38:06.514Z,11.05
2019-06-26T06:40:36.226Z,11.60
2019-06-26T06:43:05.891Z,12.20
2019-06-26T06:45:35.762Z,11.57
2019-06-26T06:48:05.342Z,11.00
2019-06-26T06:50:35.005Z,9.88
2019-06-26T06:53:04.673Z,10.20
2019-06-26T06:55:34.370Z,10.32
2019-06-26T06:58:04.040Z,10.50
2019-06-26T07:00:33.800Z,10.28
2019-06-26T07:03:03.448Z,11.22
2019-06-26T07:05:33.110Z,10.68
2019-06-26T07:08:02.938Z,10.70
2019-06-26T07:10:32.537Z,10.05
2019-06-26T07:13:02.214Z,10.95
2019-06-26T07:15:31.945Z,10.05
2019-06-26T07:18:01.641Z,10.53
2019-06-26T07:20:31.303Z,10.98
2019-06-26T07:23:01.066Z,10.58
2019-06-26T07:25:30.704Z,11.10
2019-06-26T07:28:02.027Z,9.90
2019-06-26T07:30:31.733Z,9.70
2019-06-26T07:33:01.467Z,9.80
2019-06-26T07:35:31.106Z,9.58
2019-06-26T07:38:00.771Z,9.50
2019-06-26T07:40:30.417Z,9.75
2019-06-26T07:43:01.119Z,10.35
2019-06-26T07:45:30.761Z,9.70
2019-06-26T07:48:00.472Z,9.20
2019-06-26T07:50:32.551Z,8.90
2019-06-26T07:53:03.797Z,8.75
2019-06-26T07:55:33.462Z,9.50
2019-06-26T07:58:03.115Z,9.20
2019-06-26T08:00:32.745Z,8.33
2019-06-26T08:03:04.423Z,8.35
2019-06-26T08:05:33.855Z,8.15
2019-06-26T08:08:03.477Z,8.28
2019-06-26T08:10:33.100Z,7.53
2019-06-26T08:13:02.749Z,6.72
2019-06-26T08:15:32.422Z,6.90
2019-06-26T08:18:02.056Z,7.12
2019-06-26T08:20:31.739Z,6.85
2019-06-26T08:23:01.536Z,6.65
2019-06-26T08:25:31.148Z,7.17
2019-06-26T08:28:00.820Z,7.05
2019-06-26T08:30:30.546Z,7.15
2019-06-26T08:33:00.194Z,6.87
2019-06-26T08:35:29.858Z,6.90
2019-06-26T08:38:09.956Z,7.28
2019-06-26T08:40:30.962Z,7.58
2019-06-26T08:43:00.674Z,7.92
2019-06-26T08:45:30.313Z,7.60
2019-06-26T08:48:16.394Z,8.65
2019-06-26T08:50:31.396Z,8.63
2019-06-26T08:53:00.971Z,9.28
2019-06-26T08:55:30.655Z,8.73
2019-06-26T08:58:00.316Z,7.95
2019-06-26T09:00:30.171Z,8.40
2019-06-26T09:02:59.841Z,9.35
2019-06-26T09:05:43.564Z,9.38
2019-06-26T09:08:01.985Z,9.75
2019-06-26T09:10:31.854Z,9.15
2019-06-26T09:13:01.530Z,9.18
2019-06-26T09:15:31.331Z,8.90
2019-06-26T09:18:02.023Z,8.90
2019-06-26T09:20:39.753Z,8.85
2019-06-26T09:23:09.820Z,9.30
2019-06-26T09:25:39.898Z,8.93
2019-06-26T09:28:09.637Z,9.13
2019-06-26T09:30:39.296Z,8.65
2019-06-26T09:33:09.033Z,8.78
2019-06-26T09:35:38.673Z,9.20
2019-06-26T09:38:08.317Z,9.03
2019-06-26T09:40:39.190Z,8.60
2019-06-26T09:43:09.006Z,9.13
2019-06-26T09:45:38.666Z,9.60
2019-06-26T09:48:09.024Z,8.05
2019-06-26T09:50:38.783Z,8.73
2019-06-26T09:53:08.565Z,8.00
2019-06-26T09:55:38.212Z,8.33
2019-06-26T09:58:07.881Z,8.18
2019-06-26T10:00:37.857Z,8.05
2019-06-26T10:03:07.526Z,8.35
2019-06-26T10:05:37.244Z,8.68
2019-06-26T10:08:07.269Z,8.70
2019-06-26T10:10:37.053Z,9.00
2019-06-26T10:13:06.646Z,8.68
2019-06-26T10:15:36.504Z,7.65
2019-06-26T10:18:06.347Z,7.62
2019-06-26T10:20:36.233Z,7.70
2019-06-26T10:23:05.879Z,8.15
2019-06-26T10:25:35.784Z,7.90
2019-06-26T10:28:05.605Z,8.45
2019-06-26T10:30:35.746Z,8.35
2019-06-26T10:33:05.381Z,8.33
2019-06-26T10:35:35.118Z,8.65
2019-06-26T10:38:04.900Z,8.25
2019-06-26T10:40:34.567Z,7.92
2019-06-26T10:43:04.220Z,8.10
2019-06-26T10:45:36.160Z,7.30
2019-06-26T10:48:05.532Z,7.72
2019-06-26T10:50:47.519Z,8.63
2019-06-26T10:53:06.589Z,8.50
2019-06-26T10:55:36.267Z,9.55
2019-06-26T10:58:05.897Z,8.60
2019-06-26T11:00:35.660Z,9.65
2019-06-26T11:03:05.593Z,9.40
2019-06-26T11:05:35.267Z,9.88
2019-06-26T11:08:05.202Z,9.10
2019-06-26T11:10:34.857Z,8.90
2019-06-26T11:13:04.936Z,8.55
2019-06-26T11:15:34.579Z,7.70
2019-06-26T11:18:04.259Z,8.48
2019-06-26T11:20:34.010Z,8.15
2019-06-26T11:23:03.653Z,7.72
2019-06-26T11:25:33.312Z,8.20
2019-06-26T11:28:03.006Z,7.65
2019-06-26T11:30:32.716Z,7.08
2019-06-26T11:33:02.598Z,7.85
2019-06-26T11:35:32.288Z,7.28
2019-06-26T11:38:01.924Z,7.10
2019-06-26T11:40:31.607Z,6.30
2019-06-26T11:43:01.264Z,5.92
2019-06-26T11:45:30.837Z,6.37
2019-06-26T11:48:00.501Z,6.12
2019-06-26T11:50:30.156Z,5.78
2019-06-26T11:53:00.812Z,5.67
2019-06-26T11:55:30.699Z,5.92
2019-06-26T11:58:00.323Z,5.60
2019-06-26T12:00:30.771Z,5.00
2019-06-26T12:03:00.462Z,4.90
2019-06-26T12:05:30.104Z,4.25
2019-06-26T12:07:59.742Z,4.35
2019-06-26T12:10:29.315Z,4.40
2019-06-26T12:12:58.975Z,4.65
2019-06-26T12:15:28.883Z,4.72
2019-06-26T12:17:58.534Z,4.37
2019-06-26T12:20:28.216Z,3.50
2019-06-26T12:22:57.857Z,4.33
2019-06-26T12:25:27.433Z,4.03
2019-06-26T12:27:57.098Z,4.53
2019-06-26T12:30:26.665Z,4.35
2019-06-26T12:33:02.933Z,3.83
2019-06-26T12:35:27.674Z,4.47
2019-06-26T12:37:57.319Z,4.00
2019-06-26T12:40:30.768Z,4.03
2019-06-26T12:42:58.329Z,3.58
2019-06-26T12:45:27.964Z,3.60
2019-06-26T12:47:57.618Z,3.55
2019-06-26T12:50:35.443Z,3.25
2019-06-26T12:52:58.551Z,3.72
2019-06-26T12:55:31.771Z,3.22
2019-06-26T12:58:12.646Z,3.33
2019-06-26T13:00:30.920Z,2.98
2019-06-26T13:03:00.565Z,3.25
2019-06-26T13:05:30.205Z,3.00
2019-06-26T13:07:59.788Z,3.10
2019-06-26T13:10:29.427Z,3.27
2019-06-26T13:12:59.122Z,3.47
2019-06-26T13:15:28.781Z,3.52
2019-06-26T13:18:01.354Z,3.12
2019-06-26T13:20:29.711Z,2.67
2019-06-26T13:22:59.364Z,2.83
2019-06-26T13:25:29.057Z,2.52
2019-06-26T13:27:58.751Z,2.85
2019-06-26T13:30:39.050Z,3.37
2019-06-26T13:33:08.703Z,2.95
2019-06-26T13:35:39.364Z,3.17
2019-06-26T13:38:09.008Z,2.58
2019-06-26T13:40:40.911Z,2.98
2019-06-26T13:43:09.911Z,3.00
2019-06-26T13:45:39.576Z,2.60
2019-06-26T13:48:09.211Z,2.95
2019-06-26T13:50:38.872Z,3.10
2019-06-26T13:53:08.434Z,3.08
2019-06-26T13:55:38.112Z,2.90
2019-06-26T13:58:07.802Z,3.20
2019-06-26T14:00:37.414Z,2.98
2019-06-26T14:03:07.078Z,2.98
2019-06-26T14:05:36.635Z,3.42
2019-06-26T14:08:06.272Z,2.98
2019-06-26T14:10:35.944Z,3.50
2019-06-26T14:13:05.681Z,2.98
2019-06-26T14:15:35.311Z,3.12
2019-06-26T14:18:04.970Z,3.02
2019-06-26T14:20:34.536Z,2.67
2019-06-26T14:23:04.168Z,3.67
2019-06-26T14:25:33.759Z,2.95
2019-06-26T14:28:03.515Z,3.05
2019-06-26T14:30:33.212Z,3.35
2019-06-26T14:33:02.820Z,3.15
2019-06-26T14:35:32.455Z,3.15
2019-06-26T14:38:02.052Z,2.87
2019-06-26T14:40:31.936Z,3.10
2019-06-26T14:43:01.586Z,2.85
2019-06-26T14:45:31.255Z,2.98
2019-06-26T14:48:00.807Z,2.90
2019-06-26T14:50:30.474Z,2.77
2019-06-26T14:53:00.481Z,3.00
2019-06-26T14:55:30.332Z,2.60
2019-06-26T14:57:59.908Z,2.75
2019-06-26T15:00:29.487Z,2.60
2019-06-26T15:02:59.131Z,2.50
2019-06-26T15:05:28.768Z,2.67
2019-06-26T15:07:58.422Z,2.90
2019-06-26T15:10:28.066Z,3.20
2019-06-26T15:12:57.734Z,2.65
2019-06-26T15:15:28.378Z,2.72
2019-06-26T15:17:58.010Z,2.70
2019-06-26T15:20:27.645Z,3.17
2019-06-26T15:22:58.867Z,3.22
2019-06-26T15:25:28.728Z,3.20
2019-06-26T15:27:58.365Z,3.12
2019-06-26T15:30:27.955Z,2.85
2019-06-26T15:32:57.593Z,3.30
2019-06-26T15:35:27.232Z,2.85
2019-06-26T15:37:56.935Z,3.02
2019-06-26T15:40:26.710Z,2.80
2019-06-26T15:42:56.418Z,2.83
2019-06-26T15:45:26.111Z,2.50
2019-06-26T15:47:55.750Z,2.75
2019-06-26T15:50:25.413Z,3.05
2019-06-26T15:52:55.093Z,2.65
2019-06-26T15:55:25.741Z,3.10
2019-06-26T15:57:55.397Z,2.72
2019-06-26T16:00:25.120Z,3.10
2019-06-26T16:02:54.684Z,2.98
2019-06-26T16:05:24.340Z,3.40
2019-06-26T16:07:53.978Z,3.25
2019-06-26T16:10:23.553Z,2.80
2019-06-26T16:12:53.247Z,3.05
2019-06-26T16:15:22.884Z,2.80
2019-06-26T16:18:03.625Z,3.25
2019-06-26T16:20:33.351Z,3.52
2019-06-26T16:23:03.015Z,3.08
2019-06-26T16:25:32.644Z,2.83
2019-06-26T16:28:05.853Z,3.35
2019-06-26T16:30:33.707Z,2.90
2019-06-26T16:33:03.350Z,2.95
2019-06-26T16:35:34.220Z,3.22
2019-06-26T16:38:04.046Z,3.90
2019-06-26T16:40:33.664Z,3.45
2019-06-26T16:43:04.246Z,3.30
2019-06-26T16:45:33.908Z,3.17
2019-06-26T16:48:04.568Z,2.98
2019-06-26T16:50:34.229Z,3.72
2019-06-26T16:53:03.870Z,3.35
2019-06-26T16:55:33.812Z,3.22
2019-06-26T16:58:03.674Z,3.45
2019-06-26T17:00:33.325Z,3.50
2019-06-26T17:03:03.072Z,3.02
2019-06-26T17:05:32.708Z,3.70
2019-06-26T17:08:02.350Z,3.75
2019-06-26T17:10:32.009Z,3.60
2019-06-26T17:13:01.685Z,3.50
2019-06-26T17:15:31.237Z,2.80
2019-06-26T17:18:00.903Z,3.80
2019-06-26T17:20:30.548Z,3.55
2019-06-26T17:23:05.902Z,3.37
2019-06-26T17:25:31.571Z,3.87
2019-06-26T17:28:01.212Z,3.33
2019-06-26T17:30:30.867Z,3.92
2019-06-26T17:33:00.520Z,3.47
2019-06-26T17:35:30.097Z,3.62
2019-06-26T17:37:59.737Z,3.58
2019-06-26T17:40:29.346Z,3.87
2019-06-26T17:43:11.999Z,4.20
2019-06-26T17:45:30.303Z,3.37
2019-06-26T17:47:59.986Z,3.90
2019-06-26T17:50:29.588Z,4.00
2019-06-26T17:52:59.250Z,3.80
2019-06-26T17:55:28.890Z,3.55
2019-06-26T17:57:58.462Z,3.52
2019-06-26T18:00:30.962Z,3.35
2019-06-26T18:03:00.631Z,3.20
2019-06-26T18:05:30.272Z,3.62
2019-06-26T18:07:59.928Z,3.70
2019-06-26T18:10:29.581Z,3.40
2019-06-26T18:12:59.220Z,3.72
2019-06-26T18:15:28.811Z,3.62
2019-06-26T18:17:58.379Z,3.47
2019-06-26T18:20:28.036Z,3.20
2019-06-26T18:23:06.885Z,3.20
2019-06-26T18:25:28.915Z,3.10
2019-06-26T18:27:58.580Z,2.37
2019-06-26T18:30:28.147Z,3.33
2019-06-26T18:32:57.784Z,3.00
2019-06-26T18:35:27.451Z,3.10
2019-06-26T18:37:58.337Z,2.72
2019-06-26T18:40:27.933Z,2.80
2019-06-26T18:42:57.611Z,2.60
2019-06-26T18:45:27.182Z,2.92
2019-06-26T18:47:56.919Z,2.83
2019-06-26T18:50:26.585Z,2.70
2019-06-26T18:52:56.218Z,2.62
2019-06-26T18:55:25.882Z,2.90
2019-06-26T18:57:55.588Z,2.80
2019-06-26T19:00:25.342Z,2.50
2019-06-26T19:02:55.006Z,3.05
2019-06-26T19:05:24.641Z,2.52
2019-06-26T19:07:54.298Z,2.70
2019-06-26T19:10:23.965Z,2.40
2019-06-26T19:12:53.601Z,2.98
2019-06-26T19:15:23.308Z,2.62
2019-06-26T19:17:52.972Z,2.10
2019-06-26T19:20:22.559Z,2.30
2019-06-26T19:22:52.232Z,2.50
2019-06-26T19:25:22.159Z,2.45
2019-06-26T19:27:51.733Z,2.80
2019-06-26T19:30:21.839Z,2.05
2019-06-26T19:32:51.470Z,2.77
2019-06-26T19:35:21.138Z,2.60
2019-06-26T19:37:50.792Z,2.62
2019-06-26T19:40:23.803Z,2.40
2019-06-26T19:42:51.739Z,2.80
2019-06-26T19:45:22.477Z,2.72
2019-06-26T19:47:52.142Z,2.50
2019-06-26T19:50:23.641Z,3.42
2019-06-26T19:52:53.112Z,2.50
2019-06-26T19:55:22.748Z,2.90
2019-06-26T19:57:52.383Z,2.83
2019-06-26T20:00:22.341Z,1.85
2019-06-26T20:02:51.993Z,2.60
2019-06-26T20:05:21.559Z,2.45
2019-06-26T20:07:51.224Z,2.45
2019-06-26T20:10:20.963Z,2.30
2019-06-26T20:12:50.603Z,2.15
2019-06-26T20:15:20.263Z,2.65
2019-06-26T20:17:49.835Z,3.02
2019-06-26T20:20:19.517Z,2.47
2019-06-26T20:22:49.109Z,2.00
2019-06-26T20:25:18.953Z,2.62
2019-06-26T20:27:48.510Z,2.33
2019-06-26T20:30:20.999Z,2.20
2019-06-26T20:32:50.664Z,2.27
2019-06-26T20:35:20.305Z,3.05
2019-06-26T20:37:49.904Z,2.12
2019-06-26T20:40:19.540Z,2.15
2019-06-26T20:42:49.219Z,2.33
2019-06-26T20:45:19.119Z,2.12
2019-06-26T20:47:48.775Z,2.12
2019-06-26T20:50:18.634Z,2.30
2019-06-26T20:52:48.395Z,2.12
2019-06-26T20:55:18.059Z,2.42
2019-06-26T20:57:47.722Z,2.83
2019-06-26T21:00:17.851Z,2.10
2019-06-26T21:02:47.495Z,2.30
2019-06-26T21:05:17.374Z,2.85
2019-06-26T21:07:47.041Z,1.98
2019-06-26T21:10:17.069Z,2.17
2019-06-26T21:12:47.029Z,2.12
2019-06-26T21:15:17.317Z,2.00
2019-06-26T21:17:47.230Z,2.47
2019-06-26T21:20:18.312Z,2.05
2019-06-26T21:22:48.290Z,2.05
2019-06-26T21:25:19.631Z,2.33
2019-06-26T21:27:49.737Z,1.90
2019-06-26T21:30:19.927Z,1.95
2019-06-26T21:32:50.126Z,2.30
2019-06-26T21:35:20.328Z,1.67
2019-06-26T21:37:50.149Z,2.00
2019-06-26T21:40:20.152Z,2.95
2019-06-26T21:42:49.785Z,2.12
2019-06-26T21:45:21.698Z,2.12
2019-06-26T21:47:51.361Z,2.50
2019-06-26T21:50:21.680Z,2.62
2019-06-26T21:52:51.342Z,2.25
2019-06-26T21:55:33.881Z,2.30
2019-06-26T21:58:11.975Z,1.82
2019-06-26T22:00:59.656Z,2.00
2019-06-26T22:03:47.447Z,1.95
2019-06-26T22:06:18.644Z,2.00
2019-06-26T22:08:58.843Z,2.20
2019-06-26T22:11:28.593Z,1.98
2019-06-26T22:13:58.552Z,1.85
2019-06-26T22:16:28.208Z,1.90
2019-06-26T22:18:57.918Z,2.00
2019-06-26T22:21:27.603Z,1.62
2019-06-26T22:23:57.251Z,1.92
2019-06-26T22:26:26.904Z,2.10
2019-06-26T22:28:56.560Z,2.08
2019-06-26T22:31:26.214Z,2.20
2019-06-26T22:33:55.772Z,2.40
2019-06-26T22:36:25.433Z,2.08
2019-06-26T22:38:55.063Z,2.40
2019-06-26T22:41:24.841Z,2.12
2019-06-26T22:43:54.504Z,2.58
2019-06-26T22:46:24.211Z,2.15
2019-06-26T22:48:53.857Z,2.37
2019-06-26T22:51:23.513Z,2.20
2019-06-26T22:53:53.154Z,2.52
2019-06-26T22:56:22.800Z,2.47
2019-06-26T22:58:52.970Z,2.60
2019-06-26T23:01:22.628Z,2.33
2019-06-26T23:03:52.290Z,2.47
2019-06-26T23:06:21.943Z,2.33
2019-06-26T23:08:51.591Z,2.85
2019-06-26T23:11:22.254Z,3.15
2019-06-26T23:13:52.985Z,3.10
2019-06-26T23:16:22.656Z,3.05
2019-06-26T23:18:52.291Z,2.92
2019-06-26T23:21:21.928Z,2.62
2019-06-26T23:23:52.587Z,2.90
2019-06-26T23:26:24.353Z,2.90
2019-06-26T23:28:53.672Z,2.58
2019-06-26T23:31:23.426Z,3.10
2019-06-26T23:33:53.080Z,3.02
2019-06-26T23:36:22.741Z,3.30
2019-06-26T23:38:52.316Z,2.52
2019-06-26T23:41:21.985Z,3.12
2019-06-26T23:43:51.706Z,2.83
2019-06-26T23:46:21.338Z,2.75
2019-06-26T23:48:50.974Z,2.95
2019-06-26T23:51:20.631Z,2.90
2019-06-26T23:53:50.280Z,2.50
2019-06-26T23:56:19.849Z,2.87
2019-06-26T23:58:49.527Z,2.62
